sensor_id;sensor_type;location;lat;lon;timestamp;P1;durP1;ratioP1;P2;durP2;ratioP2
56373;SDS011;58212;47.034;7.376;2022-09-01T00:01:43;11.90;;;10.80;;
56373;SDS011;58212;47.034;7.376;2022-09-01T00:04:13;13.05;;;11.75;;
56373;SDS011;58212;47.034;7.376;2022-09-01T00:06:42;13.77;;;12.48;;
56373;SDS011;58212;47.034;7.376;2022-09-01T00:09:12;13.82;;;12.63;;
56373;SDS011;58212;47.034;7.376;2022-09-01T00:11:41;13.63;;;12.32;;
56373;SDS011;58212;47.034;7.376;2022-09-01T00:14:13;14.85;;;13.38;;
56373;SDS011;58212;47.034;7.376;2022-09-01T00:16:40;13.52;;;12.23;;
56373;SDS011;58212;47.034;7.376;2022-09-01T00:19:09;14.52;;;13.25;;
56373;SDS011;58212;47.034;7.376;2022-09-01T00:21:39;14.02;;;12.82;;
56373;SDS011;58212;47.034;7.376;2022-09-01T00:24:08;14.73;;;13.45;;
56373;SDS011;58212;47.034;7.376;2022-09-01T00:26:40;13.77;;;12.55;;
56373;SDS011;58212;47.034;7.376;2022-09-01T00:29:07;14.85;;;13.35;;
56373;SDS011;58212;47.034;7.376;2022-09-01T00:31:34;15.57;;;14.07;;
56373;SDS011;58212;47.034;7.376;2022-09-01T00:34:01;15.68;;;14.27;;
56373;SDS011;58212;47.034;7.376;2022-09-01T00:36:31;16.77;;;15.07;;
56373;SDS011;58212;47.034;7.376;2022-09-01T00:38:59;15.45;;;14.15;;
56373;SDS011;58212;47.034;7.376;2022-09-01T00:41:28;15.27;;;13.98;;
56373;SDS011;58212;47.034;7.376;2022-09-01T00:43:59;15.95;;;14.52;;
56373;SDS011;58212;47.034;7.376;2022-09-01T00:46:30;16.10;;;14.65;;
56373;SDS011;58212;47.034;7.376;2022-09-01T00:49:00;15.93;;;14.52;;
56373;SDS011;58212;47.034;7.376;2022-09-01T00:51:34;16.98;;;15.30;;
56373;SDS011;58212;47.034;7.376;2022-09-01T00:54:08;15.43;;;13.85;;
56373;SDS011;58212;47.034;7.376;2022-09-01T00:56:39;15.48;;;13.98;;
56373;SDS011;58212;47.034;7.376;2022-09-01T00:59:07;14.90;;;13.60;;
56373;SDS011;58212;47.034;7.376;2022-09-01T01:01:39;14.40;;;13.10;;
56373;SDS011;58212;47.034;7.376;2022-09-01T01:04:09;15.07;;;13.73;;
56373;SDS011;58212;47.034;7.376;2022-09-01T01:06:39;16.02;;;14.38;;
56373;SDS011;58212;47.034;7.376;2022-09-01T01:09:11;16.13;;;14.55;;
56373;SDS011;58212;47.034;7.376;2022-09-01T01:11:38;16.20;;;14.80;;
56373;SDS011;58212;47.034;7.376;2022-09-01T01:14:09;16.73;;;15.18;;
56373;SDS011;58212;47.034;7.376;2022-09-01T01:16:37;15.18;;;13.85;;
56373;SDS011;58212;47.034;7.376;2022-09-01T01:19:10;15.75;;;14.32;;
56373;SDS011;58212;47.034;7.376;2022-09-01T01:22:04;17.02;;;15.32;;
56373;SDS011;58212;47.034;7.376;2022-09-01T01:25:04;15.77;;;14.25;;
56373;SDS011;58212;47.034;7.376;2022-09-01T01:27:32;16.45;;;14.85;;
56373;SDS011;58212;47.034;7.376;2022-09-01T01:30:00;16.38;;;14.75;;
56373;SDS011;58212;47.034;7.376;2022-09-01T01:32:32;17.55;;;15.75;;
56373;SDS011;58212;47.034;7.376;2022-09-01T01:35:00;17.70;;;16.05;;
56373;SDS011;58212;47.034;7.376;2022-09-01T01:37:30;16.38;;;14.88;;
56373;SDS011;58212;47.034;7.376;2022-09-01T01:40:00;16.90;;;15.20;;
56373;SDS011;58212;47.034;7.376;2022-09-01T01:42:32;16.92;;;15.32;;
56373;SDS011;58212;47.034;7.376;2022-09-01T01:44:59;16.33;;;14.63;;
56373;SDS011;58212;47.034;7.376;2022-09-01T01:47:28;17.83;;;15.20;;
56373;SDS011;58212;47.034;7.376;2022-09-01T01:49:55;17.10;;;15.48;;
56373;SDS011;58212;47.034;7.376;2022-09-01T01:52:23;16.27;;;14.88;;
56373;SDS011;58212;47.034;7.376;2022-09-01T01:54:50;15.45;;;14.07;;
56373;SDS011;58212;47.034;7.376;2022-09-01T01:57:19;15.77;;;14.45;;
56373;SDS011;58212;47.034;7.376;2022-09-01T01:59:46;16.92;;;15.38;;
56373;SDS011;58212;47.034;7.376;2022-09-01T02:02:13;16.42;;;15.05;;
56373;SDS011;58212;47.034;7.376;2022-09-01T02:04:40;17.63;;;16.02;;
56373;SDS011;58212;47.034;7.376;2022-09-01T02:07:09;17.15;;;15.63;;
56373;SDS011;58212;47.034;7.376;2022-09-01T02:09:40;16.58;;;14.98;;
56373;SDS011;58212;47.034;7.376;2022-09-01T02:12:10;17.50;;;15.57;;
56373;SDS011;58212;47.034;7.376;2022-09-01T02:14:38;17.90;;;16.38;;
56373;SDS011;58212;47.034;7.376;2022-09-01T02:17:05;17.30;;;15.80;;
56373;SDS011;58212;47.034;7.376;2022-09-01T02:19:33;16.95;;;15.35;;
56373;SDS011;58212;47.034;7.376;2022-09-01T02:22:02;18.42;;;16.73;;
56373;SDS011;58212;47.034;7.376;2022-09-01T02:24:30;17.73;;;16.02;;
56373;SDS011;58212;47.034;7.376;2022-09-01T02:26:57;19.20;;;17.48;;
56373;SDS011;58212;47.034;7.376;2022-09-01T02:29:27;20.58;;;18.58;;
56373;SDS011;58212;47.034;7.376;2022-09-01T02:31:56;19.27;;;17.30;;
56373;SDS011;58212;47.034;7.376;2022-09-01T02:34:24;19.17;;;17.30;;
56373;SDS011;58212;47.034;7.376;2022-09-01T02:36:55;19.90;;;17.90;;
56373;SDS011;58212;47.034;7.376;2022-09-01T02:39:24;20.98;;;19.08;;
56373;SDS011;58212;47.034;7.376;2022-09-01T02:41:55;19.42;;;17.63;;
56373;SDS011;58212;47.034;7.376;2022-09-01T02:44:25;20.23;;;18.42;;
56373;SDS011;58212;47.034;7.376;2022-09-01T02:46:55;20.58;;;18.77;;
56373;SDS011;58212;47.034;7.376;2022-09-01T02:49:24;18.95;;;17.05;;
56373;SDS011;58212;47.034;7.376;2022-09-01T02:51:56;19.80;;;17.88;;
56373;SDS011;58212;47.034;7.376;2022-09-01T02:54:27;19.80;;;17.92;;
56373;SDS011;58212;47.034;7.376;2022-09-01T02:56:55;19.17;;;17.38;;
56373;SDS011;58212;47.034;7.376;2022-09-01T02:59:24;18.15;;;16.38;;
56373;SDS011;58212;47.034;7.376;2022-09-01T03:01:58;20.30;;;18.30;;
56373;SDS011;58212;47.034;7.376;2022-09-01T03:04:26;18.58;;;16.85;;
56373;SDS011;58212;47.034;7.376;2022-09-01T03:06:54;18.52;;;16.92;;
56373;SDS011;58212;47.034;7.376;2022-09-01T03:09:22;19.88;;;17.98;;
56373;SDS011;58212;47.034;7.376;2022-09-01T03:11:50;20.73;;;18.73;;
56373;SDS011;58212;47.034;7.376;2022-09-01T03:14:18;19.75;;;17.80;;
56373;SDS011;58212;47.034;7.376;2022-09-01T03:16:47;20.20;;;18.38;;
56373;SDS011;58212;47.034;7.376;2022-09-01T03:19:16;19.38;;;17.55;;
56373;SDS011;58212;47.034;7.376;2022-09-01T03:21:44;20.25;;;18.25;;
56373;SDS011;58212;47.034;7.376;2022-09-01T03:24:16;18.85;;;17.05;;
56373;SDS011;58212;47.034;7.376;2022-09-01T03:26:45;21.67;;;19.58;;
56373;SDS011;58212;47.034;7.376;2022-09-01T03:29:14;19.70;;;17.90;;
56373;SDS011;58212;47.034;7.376;2022-09-01T03:31:43;20.05;;;18.13;;
56373;SDS011;58212;47.034;7.376;2022-09-01T03:34:10;20.98;;;18.95;;
56373;SDS011;58212;47.034;7.376;2022-09-01T03:36:44;21.42;;;19.35;;
56373;SDS011;58212;47.034;7.376;2022-09-01T03:39:16;21.20;;;19.15;;
56373;SDS011;58212;47.034;7.376;2022-09-01T03:41:44;22.25;;;20.13;;
56373;SDS011;58212;47.034;7.376;2022-09-01T03:44:12;22.83;;;20.63;;
56373;SDS011;58212;47.034;7.376;2022-09-01T03:46:41;21.83;;;19.83;;
56373;SDS011;58212;47.034;7.376;2022-09-01T03:49:10;23.63;;;21.52;;
56373;SDS011;58212;47.034;7.376;2022-09-01T03:51:44;23.85;;;21.65;;
56373;SDS011;58212;47.034;7.376;2022-09-01T03:54:11;23.20;;;20.90;;
56373;SDS011;58212;47.034;7.376;2022-09-01T03:56:38;22.83;;;20.58;;
56373;SDS011;58212;47.034;7.376;2022-09-01T03:59:11;22.58;;;20.45;;
56373;SDS011;58212;47.034;7.376;2022-09-01T04:01:42;22.92;;;20.42;;
56373;SDS011;58212;47.034;7.376;2022-09-01T04:04:13;20.25;;;18.50;;
56373;SDS011;58212;47.034;7.376;2022-09-01T04:06:41;21.88;;;19.77;;
56373;SDS011;58212;47.034;7.376;2022-09-01T04:09:11;23.55;;;20.40;;
56373;SDS011;58212;47.034;7.376;2022-09-01T04:11:42;21.42;;;19.35;;
56373;SDS011;58212;47.034;7.376;2022-09-01T04:14:13;21.38;;;19.30;;
56373;SDS011;58212;47.034;7.376;2022-09-01T04:16:41;20.17;;;18.17;;
56373;SDS011;58212;47.034;7.376;2022-09-01T04:19:27;21.25;;;18.95;;
56373;SDS011;58212;47.034;7.376;2022-09-01T04:21:59;20.42;;;18.48;;
56373;SDS011;58212;47.034;7.376;2022-09-01T04:24:39;19.88;;;17.98;;
56373;SDS011;58212;47.034;7.376;2022-09-01T04:27:09;19.90;;;17.85;;
56373;SDS011;58212;47.034;7.376;2022-09-01T04:29:38;20.13;;;18.05;;
56373;SDS011;58212;47.034;7.376;2022-09-01T04:32:07;18.75;;;16.95;;
56373;SDS011;58212;47.034;7.376;2022-09-01T04:34:39;19.30;;;17.40;;
56373;SDS011;58212;47.034;7.376;2022-09-01T04:37:12;19.65;;;17.92;;
56373;SDS011;58212;47.034;7.376;2022-09-01T04:39:47;20.15;;;18.35;;
56373;SDS011;58212;47.034;7.376;2022-09-01T04:42:17;19.02;;;17.23;;
56373;SDS011;58212;47.034;7.376;2022-09-01T04:44:46;20.70;;;18.55;;
56373;SDS011;58212;47.034;7.376;2022-09-01T04:47:13;20.20;;;18.40;;
56373;SDS011;58212;47.034;7.376;2022-09-01T04:49:44;20.95;;;17.40;;
56373;SDS011;58212;47.034;7.376;2022-09-01T04:52:13;18.77;;;16.95;;
56373;SDS011;58212;47.034;7.376;2022-09-01T04:54:43;20.75;;;18.75;;
56373;SDS011;58212;47.034;7.376;2022-09-01T04:57:14;18.08;;;16.38;;
56373;SDS011;58212;47.034;7.376;2022-09-01T04:59:42;19.30;;;17.50;;
56373;SDS011;58212;47.034;7.376;2022-09-01T05:02:10;19.65;;;17.65;;
56373;SDS011;58212;47.034;7.376;2022-09-01T05:04:37;18.58;;;16.80;;
56373;SDS011;58212;47.034;7.376;2022-09-01T05:07:14;19.85;;;17.85;;
56373;SDS011;58212;47.034;7.376;2022-09-01T05:09:46;19.90;;;18.00;;
56373;SDS011;58212;47.034;7.376;2022-09-01T05:12:36;19.88;;;17.88;;
56373;SDS011;58212;47.034;7.376;2022-09-01T05:15:03;20.38;;;18.25;;
56373;SDS011;58212;47.034;7.376;2022-09-01T05:17:33;20.23;;;18.23;;
56373;SDS011;58212;47.034;7.376;2022-09-01T05:20:02;19.60;;;17.80;;
56373;SDS011;58212;47.034;7.376;2022-09-01T05:22:31;19.25;;;17.42;;
56373;SDS011;58212;47.034;7.376;2022-09-01T05:25:06;21.92;;;19.63;;
56373;SDS011;58212;47.034;7.376;2022-09-01T05:27:43;21.17;;;19.17;;
56373;SDS011;58212;47.034;7.376;2022-09-01T05:30:18;20.00;;;18.20;;
56373;SDS011;58212;47.034;7.376;2022-09-01T05:32:46;17.98;;;16.17;;
56373;SDS011;58212;47.034;7.376;2022-09-01T05:35:16;17.75;;;15.88;;
56373;SDS011;58212;47.034;7.376;2022-09-01T05:37:45;30.92;;;18.05;;
56373;SDS011;58212;47.034;7.376;2022-09-01T05:40:17;19.48;;;17.45;;
56373;SDS011;58212;47.034;7.376;2022-09-01T05:42:48;21.00;;;18.83;;
56373;SDS011;58212;47.034;7.376;2022-09-01T05:45:19;19.83;;;17.92;;
56373;SDS011;58212;47.034;7.376;2022-09-01T05:47:53;19.15;;;17.38;;
56373;SDS011;58212;47.034;7.376;2022-09-01T05:50:21;20.13;;;18.33;;
56373;SDS011;58212;47.034;7.376;2022-09-01T05:52:51;21.00;;;18.75;;
56373;SDS011;58212;47.034;7.376;2022-09-01T05:55:21;21.13;;;19.08;;
56373;SDS011;58212;47.034;7.376;2022-09-01T05:57:51;16.70;;;14.98;;
56373;SDS011;58212;47.034;7.376;2022-09-01T06:00:22;20.50;;;18.30;;
56373;SDS011;58212;47.034;7.376;2022-09-01T06:02:49;20.35;;;18.35;;
56373;SDS011;58212;47.034;7.376;2022-09-01T06:05:20;17.30;;;15.75;;
56373;SDS011;58212;47.034;7.376;2022-09-01T06:07:51;17.80;;;16.08;;
56373;SDS011;58212;47.034;7.376;2022-09-01T06:10:21;16.45;;;14.85;;
56373;SDS011;58212;47.034;7.376;2022-09-01T06:12:49;20.27;;;18.38;;
56373;SDS011;58212;47.034;7.376;2022-09-01T06:15:17;19.98;;;17.30;;
56373;SDS011;58212;47.034;7.376;2022-09-01T06:17:49;20.63;;;18.73;;
56373;SDS011;58212;47.034;7.376;2022-09-01T06:20:17;21.70;;;19.67;;
56373;SDS011;58212;47.034;7.376;2022-09-01T06:22:44;18.02;;;16.40;;
56373;SDS011;58212;47.034;7.376;2022-09-01T06:25:13;16.55;;;14.85;;
56373;SDS011;58212;47.034;7.376;2022-09-01T06:27:45;16.23;;;14.68;;
56373;SDS011;58212;47.034;7.376;2022-09-01T06:30:14;19.80;;;17.90;;
56373;SDS011;58212;47.034;7.376;2022-09-01T06:32:52;20.20;;;18.13;;
56373;SDS011;58212;47.034;7.376;2022-09-01T06:35:22;21.17;;;19.08;;
56373;SDS011;58212;47.034;7.376;2022-09-01T06:37:54;19.42;;;17.58;;
56373;SDS011;58212;47.034;7.376;2022-09-01T06:40:43;19.35;;;17.45;;
56373;SDS011;58212;47.034;7.376;2022-09-01T06:43:11;19.40;;;17.45;;
56373;SDS011;58212;47.034;7.376;2022-09-01T06:45:46;18.55;;;16.95;;
56373;SDS011;58212;47.034;7.376;2022-09-01T06:48:20;15.05;;;13.55;;
56373;SDS011;58212;47.034;7.376;2022-09-01T06:50:51;16.98;;;15.48;;
56373;SDS011;58212;47.034;7.376;2022-09-01T06:53:19;18.90;;;17.20;;
56373;SDS011;58212;47.034;7.376;2022-09-01T06:55:48;18.10;;;16.38;;
56373;SDS011;58212;47.034;7.376;2022-09-01T06:58:16;16.33;;;14.57;;
56373;SDS011;58212;47.034;7.376;2022-09-01T07:00:48;19.10;;;17.17;;
56373;SDS011;58212;47.034;7.376;2022-09-01T07:03:16;13.88;;;12.60;;
56373;SDS011;58212;47.034;7.376;2022-09-01T07:05:58;18.08;;;16.38;;
56373;SDS011;58212;47.034;7.376;2022-09-01T07:08:44;18.08;;;16.38;;
56373;SDS011;58212;47.034;7.376;2022-09-01T07:11:33;16.70;;;15.23;;
56373;SDS011;58212;47.034;7.376;2022-09-01T07:14:03;16.63;;;14.93;;
56373;SDS011;58212;47.034;7.376;2022-09-01T07:16:34;17.55;;;15.75;;
56373;SDS011;58212;47.034;7.376;2022-09-01T07:19:05;16.50;;;14.93;;
56373;SDS011;58212;47.034;7.376;2022-09-01T07:21:47;17.15;;;15.45;;
56373;SDS011;58212;47.034;7.376;2022-09-01T07:24:15;17.13;;;14.75;;
56373;SDS011;58212;47.034;7.376;2022-09-01T07:27:14;15.85;;;14.48;;
56373;SDS011;58212;47.034;7.376;2022-09-01T07:29:42;15.55;;;14.20;;
56373;SDS011;58212;47.034;7.376;2022-09-01T07:32:11;13.90;;;12.70;;
56373;SDS011;58212;47.034;7.376;2022-09-01T07:34:40;14.93;;;13.50;;
56373;SDS011;58212;47.034;7.376;2022-09-01T07:37:09;16.77;;;15.20;;
56373;SDS011;58212;47.034;7.376;2022-09-01T07:39:38;15.07;;;13.57;;
56373;SDS011;58212;47.034;7.376;2022-09-01T07:42:33;14.93;;;13.43;;
56373;SDS011;58212;47.034;7.376;2022-09-01T07:45:19;14.23;;;12.93;;
56373;SDS011;58212;47.034;7.376;2022-09-01T07:47:55;11.70;;;10.70;;
56373;SDS011;58212;47.034;7.376;2022-09-01T07:50:24;13.93;;;12.73;;
56373;SDS011;58212;47.034;7.376;2022-09-01T07:52:53;13.43;;;12.23;;
56373;SDS011;58212;47.034;7.376;2022-09-01T07:55:23;14.13;;;12.88;;
56373;SDS011;58212;47.034;7.376;2022-09-01T07:57:56;12.48;;;11.38;;
56373;SDS011;58212;47.034;7.376;2022-09-01T08:00:24;13.77;;;12.48;;
56373;SDS011;58212;47.034;7.376;2022-09-01T08:02:57;17.05;;;13.75;;
56373;SDS011;58212;47.034;7.376;2022-09-01T08:05:26;14.38;;;12.98;;
56373;SDS011;58212;47.034;7.376;2022-09-01T08:07:54;13.25;;;12.15;;
56373;SDS011;58212;47.034;7.376;2022-09-01T08:10:27;13.35;;;12.15;;
56373;SDS011;58212;47.034;7.376;2022-09-01T08:20:54;13.95;;;12.65;;
56373;SDS011;58212;47.034;7.376;2022-09-01T08:23:32;18.88;;;17.15;;
56373;SDS011;58212;47.034;7.376;2022-09-01T08:26:03;10.55;;;9.65;;
56373;SDS011;58212;47.034;7.376;2022-09-01T08:28:32;10.70;;;9.63;;
56373;SDS011;58212;47.034;7.376;2022-09-01T08:31:04;13.30;;;12.10;;
56373;SDS011;58212;47.034;7.376;2022-09-01T08:33:35;13.35;;;12.05;;
56373;SDS011;58212;47.034;7.376;2022-09-01T08:36:05;12.98;;;11.60;;
56373;SDS011;58212;47.034;7.376;2022-09-01T08:43:59;13.60;;;12.40;;
56373;SDS011;58212;47.034;7.376;2022-09-01T08:46:36;12.98;;;11.75;;
56373;SDS011;58212;47.034;7.376;2022-09-01T08:49:07;12.43;;;11.32;;
56373;SDS011;58212;47.034;7.376;2022-09-01T08:52:15;11.80;;;10.70;;
56373;SDS011;58212;47.034;7.376;2022-09-01T08:54:49;13.55;;;12.35;;
56373;SDS011;58212;47.034;7.376;2022-09-01T08:57:25;13.55;;;12.40;;
56373;SDS011;58212;47.034;7.376;2022-09-01T09:00:16;10.90;;;9.55;;
56373;SDS011;58212;47.034;7.376;2022-09-01T09:02:50;12.45;;;11.23;;
56373;SDS011;58212;47.034;7.376;2022-09-01T09:05:32;12.55;;;11.43;;
56373;SDS011;58212;47.034;7.376;2022-09-01T09:08:15;12.20;;;11.10;;
56373;SDS011;58212;47.034;7.376;2022-09-01T09:11:18;10.93;;;9.93;;
56373;SDS011;58212;47.034;7.376;2022-09-01T09:14:04;12.57;;;11.45;;
56373;SDS011;58212;47.034;7.376;2022-09-01T09:16:40;10.70;;;9.80;;
56373;SDS011;58212;47.034;7.376;2022-09-01T09:19:10;11.30;;;10.40;;
56373;SDS011;58212;47.034;7.376;2022-09-01T09:21:43;11.55;;;10.60;;
56373;SDS011;58212;47.034;7.376;2022-09-01T09:24:15;9.90;;;8.70;;
56373;SDS011;58212;47.034;7.376;2022-09-01T09:26:51;10.00;;;9.10;;
56373;SDS011;58212;47.034;7.376;2022-09-01T09:29:19;12.50;;;11.32;;
56373;SDS011;58212;47.034;7.376;2022-09-01T09:31:47;9.82;;;8.93;;
56373;SDS011;58212;47.034;7.376;2022-09-01T09:34:15;9.00;;;8.25;;
56373;SDS011;58212;47.034;7.376;2022-09-01T09:36:52;8.25;;;7.55;;
56373;SDS011;58212;47.034;7.376;2022-09-01T09:39:21;10.57;;;9.68;;
56373;SDS011;58212;47.034;7.376;2022-09-01T09:42:00;10.73;;;9.73;;
56373;SDS011;58212;47.034;7.376;2022-09-01T09:44:38;10.00;;;9.20;;
56373;SDS011;58212;47.034;7.376;2022-09-01T09:47:11;9.85;;;9.05;;
56373;SDS011;58212;47.034;7.376;2022-09-01T09:50:09;10.45;;;9.45;;
56373;SDS011;58212;47.034;7.376;2022-09-01T09:52:45;9.65;;;8.65;;
56373;SDS011;58212;47.034;7.376;2022-09-01T09:55:24;10.38;;;9.48;;
56373;SDS011;58212;47.034;7.376;2022-09-01T09:57:54;10.35;;;9.45;;
56373;SDS011;58212;47.034;7.376;2022-09-01T10:00:25;8.30;;;7.60;;
56373;SDS011;58212;47.034;7.376;2022-09-01T10:02:56;10.77;;;9.77;;
56373;SDS011;58212;47.034;7.376;2022-09-01T10:05:34;10.10;;;9.07;;
56373;SDS011;58212;47.034;7.376;2022-09-01T10:08:05;8.65;;;7.95;;
56373;SDS011;58212;47.034;7.376;2022-09-01T10:10:40;9.73;;;8.93;;
56373;SDS011;58212;47.034;7.376;2022-09-01T10:13:10;9.65;;;8.85;;
56373;SDS011;58212;47.034;7.376;2022-09-01T10:15:42;7.07;;;6.43;;
56373;SDS011;58212;47.034;7.376;2022-09-01T10:18:14;10.10;;;9.10;;
56373;SDS011;58212;47.034;7.376;2022-09-01T10:20:44;7.97;;;7.13;;
56373;SDS011;58212;47.034;7.376;2022-09-01T10:23:17;10.75;;;9.80;;
56373;SDS011;58212;47.034;7.376;2022-09-01T10:25:46;7.85;;;7.05;;
56373;SDS011;58212;47.034;7.376;2022-09-01T10:28:16;8.75;;;7.95;;
56373;SDS011;58212;47.034;7.376;2022-09-01T10:30:49;10.88;;;9.88;;
56373;SDS011;58212;47.034;7.376;2022-09-01T10:33:21;8.23;;;7.47;;
56373;SDS011;58212;47.034;7.376;2022-09-01T10:35:49;8.73;;;8.02;;
56373;SDS011;58212;47.034;7.376;2022-09-01T10:38:19;10.07;;;9.18;;
56373;SDS011;58212;47.034;7.376;2022-09-01T10:40:50;9.88;;;8.88;;
56373;SDS011;58212;47.034;7.376;2022-09-01T10:51:40;9.25;;;8.45;;
56373;SDS011;58212;47.034;7.376;2022-09-01T10:57:18;10.38;;;9.45;;
56373;SDS011;58212;47.034;7.376;2022-09-01T10:59:52;8.88;;;7.55;;
56373;SDS011;58212;47.034;7.376;2022-09-01T11:02:22;8.10;;;7.40;;
56373;SDS011;58212;47.034;7.376;2022-09-01T11:07:39;8.32;;;7.63;;
56373;SDS011;58212;47.034;7.376;2022-09-01T11:10:30;9.23;;;8.32;;
56373;SDS011;58212;47.034;7.376;2022-09-01T11:13:17;8.20;;;7.50;;
56373;SDS011;58212;47.034;7.376;2022-09-01T11:16:03;9.10;;;8.30;;
56373;SDS011;58212;47.034;7.376;2022-09-01T11:19:14;10.00;;;9.00;;
56373;SDS011;58212;47.034;7.376;2022-09-01T11:22:13;7.22;;;6.63;;
56373;SDS011;58212;47.034;7.376;2022-09-01T11:25:05;8.57;;;7.88;;
56373;SDS011;58212;47.034;7.376;2022-09-01T11:27:55;9.75;;;8.93;;
56373;SDS011;58212;47.034;7.376;2022-09-01T11:30:44;9.43;;;8.52;;
56373;SDS011;58212;47.034;7.376;2022-09-01T11:33:25;9.43;;;8.63;;
56373;SDS011;58212;47.034;7.376;2022-09-01T11:36:13;8.68;;;7.97;;
56373;SDS011;58212;47.034;7.376;2022-09-01T11:38:48;6.60;;;5.97;;
56373;SDS011;58212;47.034;7.376;2022-09-01T11:41:23;7.97;;;7.18;;
56373;SDS011;58212;47.034;7.376;2022-09-01T11:51:51;7.93;;;7.32;;
56373;SDS011;58212;47.034;7.376;2022-09-01T11:54:18;7.95;;;7.22;;
56373;SDS011;58212;47.034;7.376;2022-09-01T11:56:46;7.63;;;7.03;;
56373;SDS011;58212;47.034;7.376;2022-09-01T11:59:13;8.32;;;7.63;;
56373;SDS011;58212;47.034;7.376;2022-09-01T12:01:40;7.50;;;6.18;;
56373;SDS011;58212;47.034;7.376;2022-09-01T12:04:19;8.30;;;7.60;;
56373;SDS011;58212;47.034;7.376;2022-09-01T12:06:54;7.88;;;7.18;;
56373;SDS011;58212;47.034;7.376;2022-09-01T12:09:30;7.05;;;6.38;;
56373;SDS011;58212;47.034;7.376;2022-09-01T12:12:02;8.45;;;7.68;;
56373;SDS011;58212;47.034;7.376;2022-09-01T12:14:30;4.95;;;4.53;;
56373;SDS011;58212;47.034;7.376;2022-09-01T12:17:00;6.38;;;5.82;;
56373;SDS011;58212;47.034;7.376;2022-09-01T12:19:29;5.05;;;4.55;;
56373;SDS011;58212;47.034;7.376;2022-09-01T12:22:01;7.47;;;6.60;;
56373;SDS011;58212;47.034;7.376;2022-09-01T12:24:31;7.65;;;7.07;;
56373;SDS011;58212;47.034;7.376;2022-09-01T12:27:01;8.60;;;7.90;;
56373;SDS011;58212;47.034;7.376;2022-09-01T12:29:29;6.63;;;6.03;;
56373;SDS011;58212;47.034;7.376;2022-09-01T12:31:57;6.72;;;6.22;;
56373;SDS011;58212;47.034;7.376;2022-09-01T12:34:34;8.27;;;7.50;;
56373;SDS011;58212;47.034;7.376;2022-09-01T12:37:08;5.65;;;5.25;;
56373;SDS011;58212;47.034;7.376;2022-09-01T12:39:38;6.93;;;6.35;;
56373;SDS011;58212;47.034;7.376;2022-09-01T12:42:08;6.55;;;5.95;;
56373;SDS011;58212;47.034;7.376;2022-09-01T12:44:48;6.32;;;5.82;;
56373;SDS011;58212;47.034;7.376;2022-09-01T12:53:21;7.50;;;6.85;;
56373;SDS011;58212;47.034;7.376;2022-09-01T12:56:02;7.75;;;6.97;;
56373;SDS011;58212;47.034;7.376;2022-09-01T12:58:34;6.85;;;6.25;;
56373;SDS011;58212;47.034;7.376;2022-09-01T13:01:04;5.35;;;4.95;;
56373;SDS011;58212;47.034;7.376;2022-09-01T13:03:36;6.53;;;5.60;;
56373;SDS011;58212;47.034;7.376;2022-09-01T13:06:04;7.28;;;6.50;;
56373;SDS011;58212;47.034;7.376;2022-09-01T13:08:33;5.35;;;4.85;;
56373;SDS011;58212;47.034;7.376;2022-09-01T13:11:02;5.68;;;4.95;;
56373;SDS011;58212;47.034;7.376;2022-09-01T13:13:31;7.45;;;6.68;;
56373;SDS011;58212;47.034;7.376;2022-09-01T13:16:00;6.20;;;5.75;;
56373;SDS011;58212;47.034;7.376;2022-09-01T13:18:36;5.60;;;4.63;;
56373;SDS011;58212;47.034;7.376;2022-09-01T13:21:06;7.18;;;6.57;;
56373;SDS011;58212;47.034;7.376;2022-09-01T13:23:36;6.72;;;6.25;;
56373;SDS011;58212;47.034;7.376;2022-09-01T13:26:06;7.35;;;6.65;;
56373;SDS011;58212;47.034;7.376;2022-09-01T13:28:34;7.35;;;6.75;;
56373;SDS011;58212;47.034;7.376;2022-09-01T13:31:09;7.20;;;6.68;;
56373;SDS011;58212;47.034;7.376;2022-09-01T13:33:41;4.85;;;4.53;;
56373;SDS011;58212;47.034;7.376;2022-09-01T13:36:08;5.50;;;5.10;;
56373;SDS011;58212;47.034;7.376;2022-09-01T13:38:37;6.72;;;6.22;;
56373;SDS011;58212;47.034;7.376;2022-09-01T13:41:07;6.45;;;5.95;;
56373;SDS011;58212;47.034;7.376;2022-09-01T13:43:38;5.70;;;5.20;;
56373;SDS011;58212;47.034;7.376;2022-09-01T13:46:05;6.55;;;5.95;;
56373;SDS011;58212;47.034;7.376;2022-09-01T13:48:34;5.18;;;4.78;;
56373;SDS011;58212;47.034;7.376;2022-09-01T13:51:02;4.60;;;4.20;;
56373;SDS011;58212;47.034;7.376;2022-09-01T13:53:29;4.65;;;4.25;;
56373;SDS011;58212;47.034;7.376;2022-09-01T13:55:57;6.07;;;5.57;;
56373;SDS011;58212;47.034;7.376;2022-09-01T13:58:25;5.93;;;5.53;;
56373;SDS011;58212;47.034;7.376;2022-09-01T14:00:52;5.15;;;4.68;;
56373;SDS011;58212;47.034;7.376;2022-09-01T14:03:21;4.40;;;4.10;;
56373;SDS011;58212;47.034;7.376;2022-09-01T14:05:49;5.38;;;4.88;;
56373;SDS011;58212;47.034;7.376;2022-09-01T14:08:17;4.63;;;4.32;;
56373;SDS011;58212;47.034;7.376;2022-09-01T14:10:47;5.47;;;4.97;;
56373;SDS011;58212;47.034;7.376;2022-09-01T14:13:18;4.30;;;3.92;;
56373;SDS011;58212;47.034;7.376;2022-09-01T14:15:47;4.35;;;3.92;;
56373;SDS011;58212;47.034;7.376;2022-09-01T14:18:14;4.53;;;4.05;;
56373;SDS011;58212;47.034;7.376;2022-09-01T14:20:44;3.95;;;3.75;;
56373;SDS011;58212;47.034;7.376;2022-09-01T14:23:13;4.80;;;4.40;;
56373;SDS011;58212;47.034;7.376;2022-09-01T14:25:41;4.50;;;4.07;;
56373;SDS011;58212;47.034;7.376;2022-09-01T14:28:10;4.78;;;4.43;;
56373;SDS011;58212;47.034;7.376;2022-09-01T14:30:40;4.53;;;4.13;;
56373;SDS011;58212;47.034;7.376;2022-09-01T14:33:08;4.50;;;4.20;;
56373;SDS011;58212;47.034;7.376;2022-09-01T14:35:37;4.53;;;4.13;;
56373;SDS011;58212;47.034;7.376;2022-09-01T14:38:05;4.45;;;4.05;;
56373;SDS011;58212;47.034;7.376;2022-09-01T14:40:33;4.63;;;4.20;;
56373;SDS011;58212;47.034;7.376;2022-09-01T14:43:02;5.93;;;5.43;;
56373;SDS011;58212;47.034;7.376;2022-09-01T14:45:32;4.40;;;4.10;;
56373;SDS011;58212;47.034;7.376;2022-09-01T14:48:02;5.00;;;4.60;;
56373;SDS011;58212;47.034;7.376;2022-09-01T14:50:30;6.35;;;4.97;;
56373;SDS011;58212;47.034;7.376;2022-09-01T14:52:58;6.32;;;4.93;;
56373;SDS011;58212;47.034;7.376;2022-09-01T14:55:27;4.57;;;4.20;;
56373;SDS011;58212;47.034;7.376;2022-09-01T14:57:55;4.07;;;3.78;;
56373;SDS011;58212;47.034;7.376;2022-09-01T15:00:24;4.95;;;4.45;;
56373;SDS011;58212;47.034;7.376;2022-09-01T15:02:53;5.53;;;5.07;;
56373;SDS011;58212;47.034;7.376;2022-09-01T15:05:22;4.97;;;4.57;;
56373;SDS011;58212;47.034;7.376;2022-09-01T15:07:50;5.25;;;4.82;;
56373;SDS011;58212;47.034;7.376;2022-09-01T15:10:19;3.70;;;3.42;;
56373;SDS011;58212;47.034;7.376;2022-09-01T15:12:48;4.63;;;4.32;;
56373;SDS011;58212;47.034;7.376;2022-09-01T15:15:15;5.55;;;5.15;;
56373;SDS011;58212;47.034;7.376;2022-09-01T15:17:43;5.22;;;4.65;;
56373;SDS011;58212;47.034;7.376;2022-09-01T15:20:10;4.45;;;4.05;;
56373;SDS011;58212;47.034;7.376;2022-09-01T15:22:56;5.13;;;4.72;;
56373;SDS011;58212;47.034;7.376;2022-09-01T15:25:23;4.47;;;4.07;;
56373;SDS011;58212;47.034;7.376;2022-09-01T15:27:51;3.72;;;3.42;;
56373;SDS011;58212;47.034;7.376;2022-09-01T15:30:18;4.70;;;4.40;;
56373;SDS011;58212;47.034;7.376;2022-09-01T15:32:46;4.10;;;3.78;;
56373;SDS011;58212;47.034;7.376;2022-09-01T15:35:15;3.90;;;3.50;;
56373;SDS011;58212;47.034;7.376;2022-09-01T15:37:44;4.32;;;3.42;;
56373;SDS011;58212;47.034;7.376;2022-09-01T15:40:13;3.67;;;3.38;;